Time;durP1;ratioP1;P1;durP2;ratioP2;P2;SDS_P1;SDS_P2;PMS_P1;PMS_P2;Temp;Humidity;BMP_temperature;BMP_pressure;BME280_temperature;BME280_humidity;BME280_pressure;Samples;Min_cycle;Max_cycle;Signal;HPM_P1;HPM_P2
2021/09/16 00:01:22;;;;;;;5.95;2.95;;;;;;;;;;4999178;28;20191;-82
2021/09/16 00:03:48;;;;;;;3.33;2.83;;;;;;;;;;5015389;28;20188;-82
2021/09/16 00:06:14;;;;;;;6.30;4.85;;;;;;;;;;5004093;28;20175;-80
2021/09/16 00:08:40;;;;;;;5.50;2.83;;;;;;;;;;5004443;28;20258;-82
2021/09/16 00:11:06;;;;;;;5.20;2.90;;;;;;;;;;5001741;28;20182;-82
2021/09/16 00:13:32;;;;;;;4.82;4.43;;;;;;;;;;5000957;28;20518;-82
2021/09/16 00:15:58;;;;;;;3.40;3.10;;;;;;;;;;5001498;28;20194;-82
2021/09/16 00:18:24;;;;;;;3.30;3.00;;;;;;;;;;5003058;28;20175;-82
2021/09/16 00:20:51;;;;;;;8.20;4.00;;;;;;;;;;5007951;28;20469;-82
2021/09/16 00:23:17;;;;;;;7.35;2.80;;;;;;;;;;5003623;28;20454;-82
2021/09/16 00:25:43;;;;;;;5.50;3.65;;;;;;;;;;5002133;28;20187;-82
2021/09/16 00:28:09;;;;;;;3.07;2.77;;;;;;;;;;5000915;28;20186;-82
2021/09/16 00:30:35;;;;;;;4.00;3.13;;;;;;;;;;4996884;28;20426;-82
2021/09/16 00:33:01;;;;;;;3.27;2.97;;;;;;;;;;5005854;28;20671;-82
2021/09/16 00:35:27;;;;;;;3.37;3.13;;;;;;;;;;5001229;28;20452;-81
2021/09/16 00:37:53;;;;;;;3.60;2.92;;;;;;;;;;5003546;28;20466;-82
2021/09/16 00:40:19;;;;;;;4.57;3.47;;;;;;;;;;5015147;28;20244;-82
2021/09/16 00:42:46;;;;;;;9.57;3.75;;;;;;;;;;4997541;28;20238;-82
2021/09/16 00:45:12;;;;;;;4.85;3.40;;;;;;;;;;5003883;28;20231;-82
2021/09/16 00:47:41;;;;;;;5.13;3.28;;;;;;;;;;4998112;28;20175;-82
2021/09/16 00:50:08;;;;;;;5.32;3.20;;;;;;;;;;4994529;28;20215;-82
2021/09/16 00:52:34;;;;;;;2.95;2.65;;;;;;;;;;4999140;28;20200;-82
2021/09/16 00:55:01;;;;;;;3.95;2.50;;;;;;;;;;5001171;28;20183;-82
2021/09/16 00:57:28;;;;;;;3.10;2.90;;;;;;;;;;5017231;28;20206;-82
2021/09/16 00:59:55;;;;;;;3.25;2.95;;;;;;;;;;5003444;28;20727;-82
2021/09/16 01:02:21;;;;;;;4.25;3.10;;;;;;;;;;5000651;28;20213;-82
2021/09/16 01:04:47;;;;;;;6.28;2.83;;;;;;;;;;4994268;28;20196;-82
2021/09/16 01:07:14;;;;;;;2.90;2.70;;;;;;;;;;5000440;28;20190;-82
2021/09/16 01:09:40;;;;;;;3.10;2.90;;;;;;;;;;5017958;28;20186;-82
2021/09/16 01:12:06;;;;;;;4.55;3.40;;;;;;;;;;5019019;28;20191;-82
2021/09/16 01:14:32;;;;;;;3.25;2.88;;;;;;;;;;5001085;28;20194;-82
2021/09/16 01:17:00;;;;;;;3.38;2.70;;;;;;;;;;4999808;28;20190;-81
2021/09/16 01:19:26;;;;;;;4.45;3.20;;;;;;;;;;5015874;28;20198;-82
2021/09/16 01:21:52;;;;;;;3.20;2.88;;;;;;;;;;5000511;28;20676;-82
2021/09/16 01:24:18;;;;;;;5.13;3.35;;;;;;;;;;5003001;28;20267;-82
2021/09/16 01:26:45;;;;;;;6.15;3.40;;;;;;;;;;5001420;28;20171;-82
2021/09/16 01:29:12;;;;;;;5.43;3.20;;;;;;;;;;4993846;28;20206;-82
2021/09/16 01:31:40;;;;;;;6.43;2.70;;;;;;;;;;5000339;28;20190;-82
2021/09/16 01:34:07;;;;;;;3.20;2.50;;;;;;;;;;5000716;28;20183;-82
2021/09/16 01:36:34;;;;;;;5.78;2.90;;;;;;;;;;5003131;28;20555;-82
2021/09/16 01:39:00;;;;;;;3.17;2.90;;;;;;;;;;4996833;28;20174;-82
2021/09/16 01:41:26;;;;;;;2.42;2.22;;;;;;;;;;5000463;28;20266;-82
2021/09/16 01:43:52;;;;;;;3.78;3.20;;;;;;;;;;4993515;28;20262;-81
2021/09/16 01:46:18;;;;;;;3.63;3.33;;;;;;;;;;4998928;28;20191;-82
2021/09/16 01:48:44;;;;;;;3.90;2.80;;;;;;;;;;5014405;28;20934;-83
2021/09/16 01:51:10;;;;;;;4.60;3.70;;;;;;;;;;5003295;28;20418;-82
2021/09/16 01:53:36;;;;;;;3.60;3.20;;;;;;;;;;5002644;28;20435;-82
2021/09/16 01:56:02;;;;;;;3.85;3.30;;;;;;;;;;5000481;28;20472;-82
2021/09/16 01:58:28;;;;;;;3.37;2.97;;;;;;;;;;5000256;28;20553;-82
2021/09/16 02:00:54;;;;;;;3.17;2.97;;;;;;;;;;5018283;28;20465;-82
2021/09/16 02:03:20;;;;;;;3.17;2.93;;;;;;;;;;5020755;28;20442;-82
2021/09/16 02:05:45;;;;;;;6.27;3.50;;;;;;;;;;5005684;28;20461;-81
2021/09/16 02:08:11;;;;;;;6.40;3.57;;;;;;;;;;5004169;28;20823;-82
2021/09/16 02:10:37;;;;;;;3.40;3.10;;;;;;;;;;5004188;28;20441;-82
2021/09/16 02:13:03;;;;;;;3.50;3.20;;;;;;;;;;5018444;28;20460;-82
2021/09/16 02:15:29;;;;;;;3.38;3.08;;;;;;;;;;5014685;28;20451;-82
2021/09/16 02:17:55;;;;;;;5.30;3.13;;;;;;;;;;5006409;28;20183;-82
2021/09/16 02:20:21;;;;;;;3.07;2.77;;;;;;;;;;5003986;28;20476;-82
2021/09/16 02:22:47;;;;;;;5.30;3.00;;;;;;;;;;5003612;28;20520;-82
2021/09/16 02:25:13;;;;;;;6.47;3.60;;;;;;;;;;5003807;28;20509;-81
2021/09/16 02:27:39;;;;;;;5.20;3.90;;;;;;;;;;5003827;28;20440;-81
2021/09/16 02:30:06;;;;;;;5.45;3.15;;;;;;;;;;5007566;28;20178;-82
2021/09/16 02:32:32;;;;;;;6.20;3.85;;;;;;;;;;5018375;28;20278;-82
2021/09/16 02:34:58;;;;;;;4.50;3.30;;;;;;;;;;4996517;28;20202;-82
2021/09/16 02:37:24;;;;;;;3.37;3.07;;;;;;;;;;5003107;28;20191;-82
2021/09/16 02:39:50;;;;;;;3.33;3.03;;;;;;;;;;5018704;28;20458;-82
2021/09/16 02:42:16;;;;;;;4.47;3.40;;;;;;;;;;5005130;28;20182;-82
2021/09/16 02:44:43;;;;;;;3.70;3.10;;;;;;;;;;5002010;28;20222;-82
2021/09/16 02:47:09;;;;;;;4.05;3.13;;;;;;;;;;5003187;28;20683;-82
2021/09/16 02:49:35;;;;;;;5.10;3.00;;;;;;;;;;5004847;28;20723;-82
2021/09/16 02:52:01;;;;;;;5.80;3.03;;;;;;;;;;5003236;28;20183;-82
2021/09/16 02:54:27;;;;;;;4.68;3.40;;;;;;;;;;5013527;28;20510;-81
2021/09/16 02:56:53;;;;;;;3.58;3.28;;;;;;;;;;5005584;28;20261;-82
2021/09/16 02:59:19;;;;;;;3.30;2.75;;;;;;;;;;5003935;28;20288;-82
2021/09/16 03:01:45;;;;;;;5.80;3.23;;;;;;;;;;5001134;28;20274;-81
2021/09/16 03:04:11;;;;;;;6.13;3.27;;;;;;;;;;5002901;28;20442;-82
2021/09/16 03:06:36;;;;;;;3.97;2.97;;;;;;;;;;5003704;28;20500;-82
2021/09/16 03:09:03;;;;;;;6.17;4.40;;;;;;;;;;5021385;28;20434;-82
2021/09/16 03:11:29;;;;;;;5.13;3.78;;;;;;;;;;5002353;28;20442;-82
2021/09/16 03:13:55;;;;;;;3.58;2.90;;;;;;;;;;5001630;28;20187;-82
2021/09/16 03:16:21;;;;;;;3.40;3.10;;;;;;;;;;5018674;28;20543;-81
2021/09/16 03:18:47;;;;;;;4.57;4.18;;;;;;;;;;5002946;28;20432;-81
2021/09/16 03:21:13;;;;;;;7.35;3.50;;;;;;;;;;5005348;28;20544;-82
2021/09/16 03:23:39;;;;;;;4.05;3.30;;;;;;;;;;5003995;28;20211;-82
2021/09/16 03:26:05;;;;;;;3.50;3.20;;;;;;;;;;5003121;28;20187;-82
2021/09/16 03:28:32;;;;;;;3.80;3.50;;;;;;;;;;5001699;28;20181;-81
2021/09/16 03:30:58;;;;;;;4.63;3.60;;;;;;;;;;5002930;28;20184;-82
2021/09/16 03:33:24;;;;;;;3.80;3.50;;;;;;;;;;5003695;28;20194;-82
2021/09/16 03:35:50;;;;;;;5.60;4.13;;;;;;;;;;5005010;28;20509;-82
2021/09/16 03:38:16;;;;;;;2.95;2.65;;;;;;;;;;5001954;28;20705;-82
2021/09/16 03:40:42;;;;;;;5.20;3.27;;;;;;;;;;5004537;28;20211;-82
2021/09/16 03:43:08;;;;;;;3.70;3.37;;;;;;;;;;5001586;28;20451;-82
2021/09/16 03:45:34;;;;;;;3.70;2.83;;;;;;;;;;5003060;28;20516;-82
2021/09/16 03:48:00;;;;;;;5.60;3.50;;;;;;;;;;5004918;28;20214;-82
2021/09/16 03:50:26;;;;;;;3.05;2.75;;;;;;;;;;5002419;28;20978;-82
2021/09/16 03:52:52;;;;;;;4.70;3.58;;;;;;;;;;5016794;28;20215;-82
2021/09/16 03:55:18;;;;;;;4.63;3.03;;;;;;;;;;5017574;28;20191;-82
2021/09/16 03:57:44;;;;;;;3.25;2.70;;;;;;;;;;5001596;28;20427;-82
2021/09/16 04:00:10;;;;;;;3.40;3.10;;;;;;;;;;5004847;28;20213;-82
2021/09/16 04:02:36;;;;;;;7.68;3.67;;;;;;;;;;5002501;28;20434;-82
2021/09/16 04:05:03;;;;;;;3.65;3.10;;;;;;;;;;5001939;28;20273;-82
2021/09/16 04:07:29;;;;;;;7.60;3.50;;;;;;;;;;5001643;28;20213;-82
2021/09/16 04:09:55;;;;;;;6.30;3.15;;;;;;;;;;5000815;28;20205;-82
2021/09/16 04:12:21;;;;;;;4.53;2.83;;;;;;;;;;5017962;28;20183;-82
2021/09/16 04:14:47;;;;;;;4.93;3.37;;;;;;;;;;5004880;28;20193;-82
2021/09/16 04:17:13;;;;;;;6.33;3.60;;;;;;;;;;4998861;28;20491;-82
2021/09/16 04:19:39;;;;;;;4.03;3.37;;;;;;;;;;4996271;28;20471;-82
2021/09/16 04:22:05;;;;;;;3.23;2.93;;;;;;;;;;4999483;28;20454;-82
2021/09/16 04:24:31;;;;;;;5.75;3.15;;;;;;;;;;5001161;28;20504;-82
2021/09/16 04:26:57;;;;;;;4.97;3.70;;;;;;;;;;5003751;28;20178;-82
2021/09/16 04:29:23;;;;;;;6.90;3.07;;;;;;;;;;5001444;28;20186;-81
2021/09/16 04:31:49;;;;;;;3.60;2.53;;;;;;;;;;4994757;28;20474;-82
2021/09/16 04:34:15;;;;;;;4.03;3.60;;;;;;;;;;5002695;28;20664;-82
2021/09/16 04:36:41;;;;;;;3.27;2.57;;;;;;;;;;5016924;28;20205;-82
2021/09/16 04:39:07;;;;;;;4.03;2.90;;;;;;;;;;5019281;28;20428;-82
2021/09/16 04:41:34;;;;;;;7.50;4.20;;;;;;;;;;4996886;28;20208;-82
2021/09/16 04:44:00;;;;;;;5.82;3.90;;;;;;;;;;4997733;28;20469;-84
2021/09/16 04:46:26;;;;;;;3.63;3.33;;;;;;;;;;5000956;28;20197;-83
2021/09/16 04:48:52;;;;;;;4.78;3.75;;;;;;;;;;5015984;28;20235;-83
2021/09/16 04:51:18;;;;;;;3.90;3.47;;;;;;;;;;5003631;28;20175;-82
2021/09/16 04:53:44;;;;;;;3.70;3.40;;;;;;;;;;5002584;28;20442;-82
2021/09/16 04:56:10;;;;;;;3.67;3.35;;;;;;;;;;5000667;28;20480;-82
2021/09/16 04:58:36;;;;;;;5.80;3.10;;;;;;;;;;4996279;28;20210;-83
2021/09/16 05:01:02;;;;;;;4.73;2.70;;;;;;;;;;5014310;28;20211;-83
2021/09/16 05:03:28;;;;;;;4.30;3.23;;;;;;;;;;5011249;28;20808;-83
2021/09/16 05:05:54;;;;;;;3.67;3.37;;;;;;;;;;5003770;28;20411;-83
2021/09/16 05:08:20;;;;;;;6.50;3.60;;;;;;;;;;5000642;28;20448;-83
2021/09/16 05:10:46;;;;;;;5.50;4.18;;;;;;;;;;4999944;28;20179;-83
2021/09/16 05:13:12;;;;;;;4.38;3.15;;;;;;;;;;4998831;28;20193;-82
2021/09/16 05:15:38;;;;;;;4.65;3.60;;;;;;;;;;5014966;28;20232;-83
2021/09/16 05:18:04;;;;;;;5.68;4.07;;;;;;;;;;5004381;28;20189;-83
2021/09/16 05:20:31;;;;;;;4.20;3.80;;;;;;;;;;4999732;28;20207;-83
2021/09/16 05:22:57;;;;;;;4.25;3.80;;;;;;;;;;4996813;28;20189;-82
2021/09/16 05:25:23;;;;;;;7.93;4.20;;;;;;;;;;4997143;28;20185;-83
2021/09/16 05:27:49;;;;;;;4.55;3.33;;;;;;;;;;5012198;28;20176;-82
2021/09/16 05:30:15;;;;;;;4.38;3.97;;;;;;;;;;5017704;28;20175;-82
2021/09/16 05:32:41;;;;;;;4.20;3.88;;;;;;;;;;4995011;28;20247;-83
2021/09/16 05:35:08;;;;;;;4.05;3.40;;;;;;;;;;4997091;28;20186;-82
2021/09/16 05:37:34;;;;;;;5.43;3.95;;;;;;;;;;5004741;28;20181;-82
2021/09/16 05:40:00;;;;;;;5.55;4.15;;;;;;;;;;5013070;28;20202;-82
2021/09/16 05:42:26;;;;;;;4.65;3.67;;;;;;;;;;5020580;28;20175;-82
2021/09/16 05:44:53;;;;;;;4.53;4.13;;;;;;;;;;5007970;28;20222;-83
2021/09/16 05:47:19;;;;;;;4.80;3.78;;;;;;;;;;5003499;28;20213;-82
2021/09/16 05:49:45;;;;;;;7.60;4.20;;;;;;;;;;5003785;28;20210;-83
2021/09/16 05:52:11;;;;;;;8.43;4.97;;;;;;;;;;5003910;28;20196;-82
2021/09/16 05:54:38;;;;;;;7.03;4.57;;;;;;;;;;5019835;28;20250;-82
2021/09/16 05:57:04;;;;;;;7.40;5.45;;;;;;;;;;5008066;28;20163;-82
2021/09/16 05:59:30;;;;;;;6.28;4.38;;;;;;;;;;4998376;28;20217;-82
2021/09/16 06:01:57;;;;;;;7.28;4.65;;;;;;;;;;5003940;28;20234;-82
2021/09/16 06:04:23;;;;;;;7.18;5.07;;;;;;;;;;5000800;28;20202;-82
2021/09/16 06:06:49;;;;;;;5.40;4.88;;;;;;;;;;5017747;28;20184;-80
2021/09/16 06:09:15;;;;;;;6.90;5.00;;;;;;;;;;5005737;28;20174;-83
2021/09/16 06:11:41;;;;;;;4.53;4.13;;;;;;;;;;4998940;28;20171;-83
2021/09/16 06:14:07;;;;;;;5.45;4.35;;;;;;;;;;4999240;28;20194;-82
2021/09/16 06:16:33;;;;;;;5.63;4.90;;;;;;;;;;5004228;28;20190;-82
2021/09/16 06:19:00;;;;;;;5.35;4.38;;;;;;;;;;5002146;28;20227;-83
2021/09/16 06:21:26;;;;;;;5.82;4.60;;;;;;;;;;5019979;28;20207;-82
2021/09/16 06:23:52;;;;;;;6.35;5.40;;;;;;;;;;5004987;28;20257;-82
2021/09/16 06:26:18;;;;;;;7.20;5.18;;;;;;;;;;5018920;28;20240;-82
2021/09/16 06:28:44;;;;;;;6.30;5.60;;;;;;;;;;5019205;28;20179;-82
2021/09/16 06:31:10;;;;;;;6.65;5.60;;;;;;;;;;5018248;28;20265;-82
2021/09/16 06:33:36;;;;;;;6.40;5.05;;;;;;;;;;5003283;28;20185;-82
2021/09/16 06:36:04;;;;;;;6.75;5.15;;;;;;;;;;5007518;28;20182;-83
2021/09/16 06:38:30;;;;;;;8.18;6.55;;;;;;;;;;5002491;28;20209;-82
2021/09/16 06:40:56;;;;;;;6.18;5.57;;;;;;;;;;5018113;28;20199;-81
2021/09/16 06:43:22;;;;;;;7.30;5.70;;;;;;;;;;5017169;28;20223;-81
2021/09/16 06:45:48;;;;;;;6.70;5.70;;;;;;;;;;5018223;28;20180;-82
2021/09/16 06:48:14;;;;;;;8.70;5.57;;;;;;;;;;5005252;28;20212;-81
2021/09/16 06:50:40;;;;;;;6.80;5.75;;;;;;;;;;5000407;28;20217;-82
2021/09/16 06:53:06;;;;;;;7.82;6.10;;;;;;;;;;5001244;28;20187;-81
2021/09/16 06:55:32;;;;;;;7.78;6.30;;;;;;;;;;5003706;28;20179;-81
2021/09/16 06:57:58;;;;;;;7.88;6.40;;;;;;;;;;5003396;28;20213;-82
2021/09/16 07:00:24;;;;;;;7.57;6.50;;;;;;;;;;5004680;28;20222;-81
2021/09/16 07:02:50;;;;;;;13.70;7.50;;;;;;;;;;5006065;28;20183;-81
2021/09/16 07:05:16;;;;;;;7.80;6.95;;;;;;;;;;5002928;28;20187;-81
2021/09/16 07:07:42;;;;;;;7.75;6.75;;;;;;;;;;5002792;28;20183;-81
2021/09/16 07:10:08;;;;;;;9.68;7.03;;;;;;;;;;5018127;28;20254;-81
2021/09/16 07:12:35;;;;;;;8.32;6.95;;;;;;;;;;4999779;28;20254;-82
2021/09/16 07:15:01;;;;;;;9.68;6.63;;;;;;;;;;4999869;28;20207;-81
2021/09/16 07:17:27;;;;;;;12.45;7.38;;;;;;;;;;5002659;28;20256;-80
2021/09/16 07:19:53;;;;;;;8.02;6.53;;;;;;;;;;4999653;28;20207;-80
2021/09/16 07:22:19;;;;;;;10.60;7.60;;;;;;;;;;5000583;28;20226;-80
2021/09/16 07:24:45;;;;;;;12.43;8.10;;;;;;;;;;5018479;28;20186;-80
2021/09/16 07:27:11;;;;;;;12.18;8.32;;;;;;;;;;5003634;28;20206;-79
2021/09/16 07:29:38;;;;;;;6.35;5.85;;;;;;;;;;5000721;28;20187;-80
2021/09/16 07:32:04;;;;;;;8.40;6.30;;;;;;;;;;5018879;28;20191;-80
2021/09/16 07:34:30;;;;;;;8.23;6.57;;;;;;;;;;5017447;28;20646;-80
2021/09/16 07:36:56;;;;;;;7.80;6.82;;;;;;;;;;5004168;28;20187;-79
2021/09/16 07:39:22;;;;;;;7.97;7.05;;;;;;;;;;5004511;28;20397;-80
2021/09/16 07:41:49;;;;;;;7.35;6.18;;;;;;;;;;5002514;28;20209;-79
2021/09/16 07:44:15;;;;;;;7.32;5.30;;;;;;;;;;5001891;28;20229;-79
2021/09/16 07:46:41;;;;;;;8.38;5.57;;;;;;;;;;4996465;28;20184;-79
2021/09/16 07:49:07;;;;;;;10.20;5.72;;;;;;;;;;5002643;28;20191;-80
2021/09/16 07:51:33;;;;;;;7.43;6.57;;;;;;;;;;5002989;28;20191;-80
2021/09/16 07:53:59;;;;;;;9.95;6.25;;;;;;;;;;5004643;28;20183;-80
2021/09/16 07:56:25;;;;;;;10.60;6.95;;;;;;;;;;5000481;28;20198;-80
2021/09/16 07:58:51;;;;;;;8.55;6.68;;;;;;;;;;5001991;28;20274;-79
2021/09/16 08:01:17;;;;;;;9.35;5.88;;;;;;;;;;5003112;28;20199;-80
2021/09/16 08:03:43;;;;;;;8.40;6.97;;;;;;;;;;5002684;28;20234;-80
2021/09/16 08:06:09;;;;;;;8.00;6.57;;;;;;;;;;5005092;28;20186;-80
2021/09/16 08:08:36;;;;;;;12.20;6.75;;;;;;;;;;5001217;28;20175;-80
2021/09/16 08:11:02;;;;;;;10.52;7.07;;;;;;;;;;5017137;28;20678;-80
2021/09/16 08:13:28;;;;;;;8.05;7.25;;;;;;;;;;5014811;28;20895;-79
2021/09/16 08:15:54;;;;;;;9.63;6.28;;;;;;;;;;5002047;28;20652;-79
2021/09/16 08:18:20;;;;;;;9.68;6.55;;;;;;;;;;5013362;28;20201;-79
2021/09/16 08:20:49;;;;;;;7.55;6.40;;;;;;;;;;5000509;28;20264;-78
2021/09/16 08:23:15;;;;;;;9.30;6.00;;;;;;;;;;5001286;28;20179;-79
2021/09/16 08:25:42;;;;;;;10.15;6.78;;;;;;;;;;4996076;28;20204;-78
2021/09/16 08:28:08;;;;;;;9.63;5.68;;;;;;;;;;5017277;28;20179;-78
2021/09/16 08:30:34;;;;;;;8.32;6.88;;;;;;;;;;4996832;28;20184;-78
2021/09/16 08:33:00;;;;;;;7.28;6.15;;;;;;;;;;5003981;28;20183;-78
2021/09/16 08:35:26;;;;;;;8.00;5.85;;;;;;;;;;4994555;28;20191;-78
2021/09/16 08:37:52;;;;;;;10.27;6.28;;;;;;;;;;4995007;28;20203;-78
2021/09/16 08:40:19;;;;;;;8.93;6.40;;;;;;;;;;5000993;28;20215;-78
2021/09/16 08:42:46;;;;;;;10.55;7.28;;;;;;;;;;5015635;28;20203;-78
2021/09/16 08:45:14;;;;;;;10.52;6.35;;;;;;;;;;5004180;28;20224;-78
2021/09/16 08:47:41;;;;;;;8.07;5.40;;;;;;;;;;5002142;28;20183;-78
2021/09/16 08:50:07;;;;;;;6.45;4.45;;;;;;;;;;5005150;28;20191;-79
2021/09/16 08:52:37;;;;;;;8.00;4.45;;;;;;;;;;5001140;28;20192;-78
2021/09/16 08:55:04;;;;;;;7.15;5.05;;;;;;;;;;5016431;28;20175;-78
2021/09/16 08:57:34;;;;;;;7.38;4.35;;;;;;;;;;4996949;28;20184;-78
2021/09/16 09:00:00;;;;;;;11.00;5.13;;;;;;;;;;5004174;28;20310;-78
2021/09/16 09:02:27;;;;;;;8.85;4.65;;;;;;;;;;5000013;28;20179;-78
2021/09/16 09:04:53;;;;;;;8.18;4.35;;;;;;;;;;5000941;28;20183;-79
2021/09/16 09:07:19;;;;;;;4.53;4.05;;;;;;;;;;4999434;28;20642;-79
2021/09/16 09:09:46;;;;;;;6.32;3.60;;;;;;;;;;5000835;28;20171;-79
2021/09/16 09:12:18;;;;;;;6.88;4.18;;;;;;;;;;5003049;28;20186;-79
2021/09/16 09:14:45;;;;;;;4.28;3.10;;;;;;;;;;4997810;28;20237;-79
2021/09/16 09:17:22;;;;;;;9.93;3.65;;;;;;;;;;5000066;28;20273;-79
2021/09/16 09:19:52;;;;;;;5.32;3.10;;;;;;;;;;4994513;28;20225;-78
2021/09/16 09:22:19;;;;;;;4.97;2.88;;;;;;;;;;4990537;28;20179;-78
2021/09/16 09:24:46;;;;;;;4.13;2.38;;;;;;;;;;5000890;28;20674;-77
2021/09/16 09:27:25;;;;;;;3.85;1.95;;;;;;;;;;5003622;28;20202;-78
2021/09/16 09:30:01;;;;;;;3.78;2.22;;;;;;;;;;5010979;28;20174;-79
2021/09/16 09:32:43;;;;;;;2.95;2.42;;;;;;;;;;4994077;28;20193;-79
2021/09/16 09:35:23;;;;;;;4.72;2.00;;;;;;;;;;4994234;28;20274;-79
2021/09/16 09:37:49;;;;;;;4.18;2.25;;;;;;;;;;5000455;28;20198;-79
2021/09/16 09:40:15;;;;;;;4.68;2.00;;;;;;;;;;5000626;28;20320;-79
2021/09/16 09:42:41;;;;;;;4.38;2.20;;;;;;;;;;4999993;28;20200;-78
2021/09/16 09:45:08;;;;;;;2.65;1.90;;;;;;;;;;5019015;28;20675;-79
2021/09/16 09:47:44;;;;;;;3.40;1.67;;;;;;;;;;5000552;28;20234;-78
2021/09/16 09:50:39;;;;;;;2.78;2.00;;;;;;;;;;4994076;28;20646;-80
2021/09/16 09:53:13;;;;;;;5.07;2.60;;;;;;;;;;4993148;28;20199;-79
2021/09/16 09:55:40;;;;;;;2.22;2.03;;;;;;;;;;5008044;28;20183;-79
2021/09/16 09:58:06;;;;;;;5.68;2.20;;;;;;;;;;5000320;28;20186;-80
2021/09/16 10:00:32;;;;;;;3.15;1.30;;;;;;;;;;5015110;28;20608;-78
2021/09/16 10:03:00;;;;;;;1.70;1.52;;;;;;;;;;5002785;28;20266;-80
2021/09/16 10:05:28;;;;;;;1.50;1.40;;;;;;;;;;4993676;28;20586;-79
2021/09/16 10:07:55;;;;;;;3.33;1.98;;;;;;;;;;4999336;28;20189;-79
2021/09/16 10:10:22;;;;;;;1.60;1.50;;;;;;;;;;5013958;28;20635;-81
2021/09/16 10:12:49;;;;;;;2.00;1.80;;;;;;;;;;4997475;28;20185;-79
2021/09/16 10:15:17;;;;;;;2.05;1.73;;;;;;;;;;5002552;28;20207;-79
2021/09/16 10:17:44;;;;;;;2.03;1.88;;;;;;;;;;4997963;28;20243;-78
2021/09/16 10:20:12;;;;;;;1.98;1.73;;;;;;;;;;4994332;28;20209;-79
2021/09/16 10:22:39;;;;;;;2.40;1.85;;;;;;;;;;4998493;28;20185;-80
2021/09/16 10:25:06;;;;;;;2.10;1.80;;;;;;;;;;5000734;28;20208;-80
2021/09/16 10:27:42;;;;;;;1.95;1.45;;;;;;;;;;5003207;28;20198;-81
2021/09/16 10:30:28;;;;;;;4.35;1.80;;;;;;;;;;5018021;28;20188;-78
2021/09/16 10:33:10;;;;;;;2.15;1.80;;;;;;;;;;5005192;28;20215;-79
2021/09/16 10:35:40;;;;;;;1.80;1.63;;;;;;;;;;4998620;28;20183;-78
2021/09/16 10:38:20;;;;;;;2.35;1.90;;;;;;;;;;5003952;28;20189;-80
2021/09/16 10:40:46;;;;;;;2.00;1.70;;;;;;;;;;5004275;28;20207;-79
2021/09/16 10:43:20;;;;;;;2.17;1.45;;;;;;;;;;5001348;28;20307;-79
2021/09/16 10:45:46;;;;;;;1.98;1.88;;;;;;;;;;5012559;28;20174;-77
2021/09/16 10:48:18;;;;;;;2.00;1.80;;;;;;;;;;5005529;28;20206;-80
2021/09/16 10:51:01;;;;;;;2.20;2.00;;;;;;;;;;5006776;28;20259;-79
2021/09/16 10:53:30;;;;;;;3.08;1.70;;;;;;;;;;5002989;28;20181;-79
2021/09/16 10:55:56;;;;;;;2.22;2.03;;;;;;;;;;5002983;28;20188;-81
2021/09/16 10:58:23;;;;;;;1.90;1.70;;;;;;;;;;5002116;28;20189;-79
2021/09/16 11:00:49;;;;;;;6.00;2.05;;;;;;;;;;5001987;28;20239;-80
2021/09/16 11:03:16;;;;;;;2.00;1.90;;;;;;;;;;5004742;28;20251;-79
2021/09/16 11:05:46;;;;;;;2.30;2.10;;;;;;;;;;5004469;28;20170;-80
2021/09/16 11:08:13;;;;;;;3.20;2.38;;;;;;;;;;5003012;28;20198;-80
2021/09/16 11:10:39;;;;;;;2.00;1.80;;;;;;;;;;5002451;28;20548;-80
2021/09/16 11:13:25;;;;;;;2.40;2.10;;;;;;;;;;5001814;28;20434;-79
2021/09/16 11:15:54;;;;;;;3.40;2.70;;;;;;;;;;4999971;28;20953;-80
2021/09/16 11:18:21;;;;;;;2.10;1.90;;;;;;;;;;5005246;28;20404;-78
2021/09/16 11:20:49;;;;;;;3.50;2.35;;;;;;;;;;5003698;28;20197;-80
2021/09/16 11:23:15;;;;;;;4.35;2.63;;;;;;;;;;5001895;28;20229;-80
2021/09/16 11:25:43;;;;;;;2.40;1.97;;;;;;;;;;4997244;28;20206;-80
2021/09/16 11:28:10;;;;;;;3.15;1.98;;;;;;;;;;5001784;28;20471;-80
2021/09/16 11:30:37;;;;;;;4.30;2.50;;;;;;;;;;5019046;28;20238;-79
2021/09/16 11:33:04;;;;;;;3.05;2.17;;;;;;;;;;5005510;28;20191;-79
2021/09/16 11:35:30;;;;;;;2.90;2.03;;;;;;;;;;5002344;28;20182;-80
2021/09/16 11:37:56;;;;;;;2.65;2.03;;;;;;;;;;4995570;28;20438;-80
2021/09/16 11:40:24;;;;;;;2.97;2.28;;;;;;;;;;4999217;28;20210;-80
2021/09/16 11:42:58;;;;;;;3.83;2.50;;;;;;;;;;5012459;28;20180;-80
2021/09/16 11:45:26;;;;;;;3.00;2.07;;;;;;;;;;5004242;28;20494;-79
2021/09/16 11:47:52;;;;;;;2.87;1.90;;;;;;;;;;5000011;28;20389;-79
2021/09/16 11:50:21;;;;;;;2.40;1.63;;;;;;;;;;5002590;28;20430;-80
2021/09/16 11:52:48;;;;;;;2.47;2.27;;;;;;;;;;5001273;28;20499;-79
2021/09/16 11:55:15;;;;;;;2.63;2.43;;;;;;;;;;5001549;28;20777;-79
2021/09/16 11:58:01;;;;;;;2.60;2.03;;;;;;;;;;5001995;28;20460;-79
2021/09/16 12:00:32;;;;;;;3.40;2.00;;;;;;;;;;5003175;28;20457;-80
2021/09/16 12:02:58;;;;;;;2.07;1.97;;;;;;;;;;5004423;28;20428;-80
2021/09/16 12:05:36;;;;;;;1.67;1.50;;;;;;;;;;4996660;28;20538;-79
2021/09/16 12:08:03;;;;;;;2.83;2.10;;;;;;;;;;4997410;28;20450;-80
2021/09/16 12:10:40;;;;;;;1.70;1.60;;;;;;;;;;5016316;28;21004;-79
2021/09/16 12:13:07;;;;;;;1.93;1.80;;;;;;;;;;4989408;28;20430;-79
2021/09/16 12:15:34;;;;;;;1.80;1.70;;;;;;;;;;5002878;28;20400;-79
2021/09/16 12:18:00;;;;;;;2.87;2.30;;;;;;;;;;4997870;28;20431;-79
2021/09/16 12:20:26;;;;;;;2.67;2.13;;;;;;;;;;4997124;28;20465;-79
2021/09/16 12:22:52;;;;;;;1.73;1.63;;;;;;;;;;5000934;28;20400;-79
2021/09/16 12:25:18;;;;;;;2.13;1.80;;;;;;;;;;5001249;28;20412;-79
2021/09/16 12:28:00;;;;;;;2.90;2.00;;;;;;;;;;4991453;28;20408;-80
2021/09/16 12:30:26;;;;;;;3.23;2.23;;;;;;;;;;5002779;28;20513;-80
2021/09/16 12:32:53;;;;;;;2.60;2.33;;;;;;;;;;5003242;28;20423;-80
2021/09/16 12:35:19;;;;;;;2.37;2.00;;;;;;;;;;5001879;28;20445;-79
2021/09/16 12:37:45;;;;;;;3.20;2.00;;;;;;;;;;4995513;28;20461;-80
2021/09/16 12:40:24;;;;;;;2.80;2.03;;;;;;;;;;4999947;28;20978;-79
2021/09/16 12:42:50;;;;;;;1.93;1.83;;;;;;;;;;5000055;28;20444;-79
2021/09/16 12:45:17;;;;;;;3.43;2.10;;;;;;;;;;5002377;28;20472;-78
2021/09/16 12:47:47;;;;;;;2.10;1.90;;;;;;;;;;4999100;28;20520;-78
2021/09/16 12:50:13;;;;;;;2.60;1.83;;;;;;;;;;4995760;28;20438;-78
2021/09/16 12:52:39;;;;;;;2.30;2.10;;;;;;;;;;4999573;28;20533;-77
2021/09/16 12:55:06;;;;;;;2.70;2.07;;;;;;;;;;4999159;28;20446;-78
2021/09/16 12:57:37;;;;;;;2.30;2.00;;;;;;;;;;5002450;28;20473;-79
2021/09/16 13:00:07;;;;;;;1.83;1.67;;;;;;;;;;5004001;28;20495;-78
2021/09/16 13:02:50;;;;;;;2.27;2.10;;;;;;;;;;4996718;28;20446;-78
2021/09/16 13:05:16;;;;;;;1.87;1.77;;;;;;;;;;4995216;28;20445;-78
2021/09/16 13:07:43;;;;;;;2.03;1.90;;;;;;;;;;4999863;28;20917;-77
2021/09/16 13:10:25;;;;;;;3.30;1.73;;;;;;;;;;5000382;28;20775;-78
2021/09/16 13:13:20;;;;;;;2.13;2.00;;;;;;;;;;4998739;28;20462;-77
2021/09/16 13:15:46;;;;;;;2.53;2.33;;;;;;;;;;4977479;28;20443;-77
2021/09/16 13:18:13;;;;;;;2.50;2.30;;;;;;;;;;5003573;28;20425;-78
2021/09/16 13:20:39;;;;;;;3.43;2.20;;;;;;;;;;5000754;28;20683;-79
2021/09/16 13:23:06;;;;;;;1.93;1.80;;;;;;;;;;5000165;28;20430;-77
2021/09/16 13:25:32;;;;;;;3.47;1.60;;;;;;;;;;4999667;28;20446;-78
2021/09/16 13:27:58;;;;;;;1.90;1.80;;;;;;;;;;5000600;28;20441;-78
2021/09/16 13:30:25;;;;;;;3.67;2.37;;;;;;;;;;5001578;28;20430;-78
2021/09/16 13:32:51;;;;;;;2.07;1.87;;;;;;;;;;5001829;28;21484;-78
2021/09/16 13:35:18;;;;;;;2.10;1.90;;;;;;;;;;4999896;28;20508;-77
2021/09/16 13:37:44;;;;;;;2.47;2.07;;;;;;;;;;5001001;28;20434;-78
2021/09/16 13:40:11;;;;;;;1.70;1.60;;;;;;;;;;4999516;28;20461;-79
2021/09/16 13:42:38;;;;;;;2.10;1.90;;;;;;;;;;5000311;28;20431;-78
2021/09/16 13:45:06;;;;;;;1.90;1.70;;;;;;;;;;5001968;28;20470;-78
2021/09/16 13:47:32;;;;;;;2.13;2.03;;;;;;;;;;4996053;28;20519;-77
2021/09/16 13:49:59;;;;;;;3.03;2.03;;;;;;;;;;5000330;28;20463;-78
2021/09/16 13:52:25;;;;;;;2.40;2.20;;;;;;;;;;4999308;28;20513;-77
2021/09/16 13:54:51;;;;;;;1.90;1.80;;;;;;;;;;4989763;28;20446;-78
2021/09/16 13:57:17;;;;;;;2.73;1.90;;;;;;;;;;5006544;28;20430;-77
2021/09/16 13:59:43;;;;;;;2.03;1.90;;;;;;;;;;5005626;28;20750;-77
2021/09/16 14:02:09;;;;;;;2.07;1.93;;;;;;;;;;5004037;28;20433;-78
2021/09/16 14:04:35;;;;;;;2.30;2.10;;;;;;;;;;5003641;28;20482;-78
2021/09/16 14:07:01;;;;;;;1.80;1.70;;;;;;;;;;5005688;28;20437;-78
2021/09/16 14:09:27;;;;;;;2.30;1.60;;;;;;;;;;5005372;28;20632;-77
2021/09/16 14:11:53;;;;;;;1.90;1.80;;;;;;;;;;5002741;28;20421;-77
2021/09/16 14:14:19;;;;;;;2.67;1.80;;;;;;;;;;5012825;28;20464;-78
2021/09/16 14:16:46;;;;;;;3.20;2.10;;;;;;;;;;5003816;28;20436;-78
2021/09/16 14:19:12;;;;;;;1.83;1.70;;;;;;;;;;5004017;28;20442;-78
2021/09/16 14:21:38;;;;;;;2.97;2.10;;;;;;;;;;5002379;28;20516;-78
2021/09/16 14:24:05;;;;;;;5.93;2.70;;;;;;;;;;5007247;28;20456;-78
2021/09/16 14:26:31;;;;;;;2.30;2.10;;;;;;;;;;4997212;28;20457;-78
2021/09/16 14:28:57;;;;;;;2.10;2.00;;;;;;;;;;4997292;28;20927;-78
2021/09/16 14:31:23;;;;;;;1.73;1.63;;;;;;;;;;5004417;28;20439;-79
2021/09/16 14:33:49;;;;;;;1.80;1.70;;;;;;;;;;5018190;28;20474;-78
2021/09/16 14:36:15;;;;;;;2.13;1.93;;;;;;;;;;5021293;28;20522;-79
2021/09/16 14:38:43;;;;;;;2.50;2.30;;;;;;;;;;4998364;28;20415;-80
2021/09/16 14:41:10;;;;;;;1.97;1.87;;;;;;;;;;5004016;28;20471;-79
2021/09/16 14:43:36;;;;;;;2.53;2.20;;;;;;;;;;5003091;28;20983;-79